createdAt,value
2019-03-30T00:00:09.897Z,6.80
2019-03-30T00:02:49.846Z,10.13
2019-03-30T00:05:30.017Z,7.73
2019-03-30T00:08:10.023Z,6.87
2019-03-30T00:10:49.949Z,5.83
2019-03-30T00:13:30.126Z,6.03
2019-03-30T00:16:10.429Z,6.40
2019-03-30T00:18:50.707Z,6.90
2019-03-30T00:21:30.707Z,9.70
2019-03-30T00:24:10.712Z,6.43
2019-03-30T00:26:50.875Z,7.67
2019-03-30T00:29:30.845Z,5.57
2019-03-30T00:32:10.953Z,8.77
2019-03-30T00:34:51.281Z,6.60
2019-03-30T00:37:31.546Z,6.97
2019-03-30T00:40:11.645Z,7.20
2019-03-30T00:42:51.798Z,6.23
2019-03-30T00:45:31.778Z,5.43
2019-03-30T00:48:11.822Z,5.63
2019-03-30T00:50:52.029Z,6.20
2019-03-30T00:53:32.186Z,7.50
2019-03-30T00:56:14.554Z,6.93
2019-03-30T00:58:42.742Z,6.43
2019-03-30T01:01:30.261Z,8.77
2019-03-30T01:04:10.385Z,7.03
2019-03-30T01:06:50.344Z,5.57
2019-03-30T01:09:30.608Z,8.73
2019-03-30T01:12:10.600Z,6.00
2019-03-30T01:14:50.660Z,8.33
2019-03-30T01:17:30.643Z,5.03
2019-03-30T01:20:13.826Z,5.87
2019-03-30T01:22:54.317Z,6.23
2019-03-30T01:25:34.414Z,5.50
2019-03-30T01:28:14.478Z,6.43
2019-03-30T01:30:54.671Z,7.53
2019-03-30T01:33:34.889Z,7.07
2019-03-30T01:36:18.879Z,7.10
2019-03-30T01:38:59.113Z,7.00
2019-03-30T01:41:39.399Z,7.03
2019-03-30T01:44:19.348Z,7.10
2019-03-30T01:46:59.479Z,7.33
2019-03-30T01:49:39.670Z,7.60
2019-03-30T01:52:23.000Z,6.63
2019-03-30T01:55:03.150Z,7.90
2019-03-30T01:57:43.461Z,6.80
2019-03-30T02:00:23.806Z,7.23
2019-03-30T02:03:03.917Z,7.17
2019-03-30T02:05:45.987Z,7.73
2019-03-30T02:08:26.316Z,6.63
2019-03-30T02:11:06.358Z,7.63
2019-03-30T02:13:46.434Z,8.17
2019-03-30T02:16:26.629Z,9.57
2019-03-30T02:19:06.598Z,7.43
2019-03-30T02:21:47.073Z,6.97
2019-03-30T02:24:26.862Z,6.10
2019-03-30T02:27:07.133Z,6.67
2019-03-30T02:29:47.210Z,7.53
2019-03-30T02:32:27.509Z,7.50
2019-03-30T02:35:09.918Z,8.20
2019-03-30T02:37:49.750Z,8.17
2019-03-30T02:40:29.908Z,9.43
2019-03-30T02:43:10.055Z,7.63
2019-03-30T02:45:49.989Z,8.23
2019-03-30T02:48:30.246Z,8.33
2019-03-30T02:51:10.320Z,8.17
2019-03-30T02:53:50.482Z,7.20
2019-03-30T02:56:18.876Z,7.27
2019-03-30T02:59:06.171Z,8.53
2019-03-30T03:01:45.994Z,7.37
2019-03-30T03:04:26.110Z,9.73
2019-03-30T03:07:06.293Z,8.53
2019-03-30T03:09:46.609Z,9.63
2019-03-30T03:12:26.661Z,9.30
2019-03-30T03:15:07.735Z,10.37
2019-03-30T03:17:48.159Z,10.80
2019-03-30T03:20:16.654Z,7.40
2019-03-30T03:23:04.146Z,7.97
2019-03-30T03:25:51.434Z,8.40
2019-03-30T03:28:31.092Z,10.37
2019-03-30T03:31:11.468Z,7.20
2019-03-30T03:33:39.754Z,9.37
2019-03-30T03:36:27.065Z,7.90
2019-03-30T03:39:07.559Z,9.67
2019-03-30T03:41:47.740Z,8.30
2019-03-30T03:44:28.056Z,8.07
2019-03-30T03:47:08.104Z,10.00
2019-03-30T03:49:48.193Z,8.23
2019-03-30T03:52:56.738Z,8.50
2019-03-30T03:58:46.097Z,8.33
2019-03-30T04:01:26.182Z,10.03
2019-03-30T04:04:06.242Z,9.97
2019-03-30T04:06:46.314Z,8.57
2019-03-30T04:09:26.406Z,7.90
2019-03-30T04:12:07.882Z,7.90
2019-03-30T04:14:47.565Z,7.47
2019-03-30T04:17:27.469Z,7.90
2019-03-30T04:20:07.659Z,7.43
2019-03-30T04:22:47.711Z,6.83
2019-03-30T04:25:27.778Z,6.83
2019-03-30T04:28:07.838Z,6.77
2019-03-30T04:30:47.886Z,7.40
2019-03-30T04:33:28.374Z,8.67
2019-03-30T04:36:08.278Z,7.10
2019-03-30T04:38:48.358Z,7.33
2019-03-30T04:41:16.485Z,7.30
2019-03-30T04:44:03.813Z,7.27
2019-03-30T04:46:52.299Z,6.20
2019-03-30T04:49:32.195Z,6.40
2019-03-30T04:52:14.650Z,7.67
2019-03-30T04:54:42.866Z,5.80
2019-03-30T04:57:30.898Z,5.70
2019-03-30T05:00:10.828Z,5.80
2019-03-30T05:02:50.932Z,6.67
2019-03-30T05:05:30.800Z,6.30
2019-03-30T05:08:13.597Z,5.83
2019-03-30T05:10:54.003Z,6.93
2019-03-30T05:13:34.090Z,6.63
2019-03-30T05:16:14.322Z,4.53
2019-03-30T05:18:54.208Z,6.00
2019-03-30T05:21:34.565Z,5.80
2019-03-30T05:24:14.634Z,4.90
2019-03-30T05:26:42.884Z,5.47
2019-03-30T05:29:30.209Z,8.43
2019-03-30T05:32:18.067Z,6.50
2019-03-30T05:34:58.762Z,5.73
2019-03-30T05:37:38.430Z,6.30
2019-03-30T05:40:19.543Z,5.73
2019-03-30T05:42:59.514Z,4.20
2019-03-30T05:45:39.629Z,6.30
2019-03-30T05:48:19.662Z,4.13
2019-03-30T05:51:00.596Z,6.00
2019-03-30T05:53:41.393Z,6.13
2019-03-30T05:56:20.967Z,5.57
2019-03-30T05:59:01.337Z,4.57
2019-03-30T06:01:42.003Z,4.60
2019-03-30T06:04:22.098Z,4.73
2019-03-30T06:07:02.319Z,6.73
2019-03-30T06:09:42.869Z,3.80
2019-03-30T06:12:25.064Z,4.60
2019-03-30T06:15:05.220Z,4.97
2019-03-30T06:17:45.270Z,4.73
2019-03-30T06:20:25.433Z,5.17
2019-03-30T06:23:05.423Z,5.20
2019-03-30T06:25:45.348Z,5.10
2019-03-30T06:28:25.273Z,4.70
2019-03-30T06:31:05.348Z,4.20
2019-03-30T06:33:45.403Z,4.87
2019-03-30T06:36:13.697Z,4.13
2019-03-30T06:39:01.320Z,4.37
2019-03-30T06:41:48.601Z,4.77
2019-03-30T06:44:16.784Z,4.97
2019-03-30T06:47:04.076Z,5.07
2019-03-30T06:49:44.621Z,5.33
2019-03-30T06:52:24.831Z,4.43
2019-03-30T06:55:05.639Z,5.53
2019-03-30T06:57:45.571Z,4.93
2019-03-30T07:00:25.917Z,4.30
2019-03-30T07:03:05.721Z,5.10
2019-03-30T07:05:45.702Z,4.00
2019-03-30T07:08:26.092Z,4.87
2019-03-30T07:11:20.177Z,4.90
2019-03-30T07:13:47.775Z,5.90
2019-03-30T07:16:27.758Z,5.43
2019-03-30T07:19:10.566Z,8.53
2019-03-30T07:21:50.953Z,4.93
2019-03-30T07:24:30.986Z,4.90
2019-03-30T07:27:10.973Z,5.63
2019-03-30T07:29:50.956Z,5.80
2019-03-30T07:32:31.032Z,5.27
2019-03-30T07:35:11.050Z,5.23
2019-03-30T07:37:51.219Z,5.67
2019-03-30T07:40:33.834Z,5.47
2019-03-30T07:43:13.368Z,5.80
2019-03-30T07:45:53.435Z,6.03
2019-03-30T07:51:33.671Z,6.97
2019-03-30T07:54:14.229Z,7.77
2019-03-30T07:57:04.953Z,5.50
2019-03-30T07:59:37.469Z,8.23
2019-03-30T08:02:17.325Z,7.07
2019-03-30T08:04:57.268Z,5.77
2019-03-30T08:07:37.531Z,6.93
2019-03-30T08:10:18.081Z,10.07
2019-03-30T08:12:58.065Z,8.00
2019-03-30T08:15:38.156Z,6.37
2019-03-30T08:18:18.298Z,7.30
2019-03-30T08:20:58.305Z,5.60
2019-03-30T08:23:40.658Z,10.20
2019-03-30T08:26:20.719Z,5.93
2019-03-30T08:29:00.864Z,6.33
2019-03-30T08:31:41.075Z,8.23
2019-03-30T08:34:21.335Z,6.93
2019-03-30T08:37:01.316Z,6.67
2019-03-30T08:39:41.590Z,5.87
2019-03-30T08:42:21.700Z,5.70
2019-03-30T08:45:01.815Z,6.47
2019-03-30T08:47:29.972Z,6.90
2019-03-30T08:50:17.385Z,5.70
2019-03-30T08:52:57.321Z,11.23
2019-03-30T08:55:25.508Z,8.17
2019-03-30T08:58:12.833Z,6.40
2019-03-30T09:01:19.537Z,9.53
2019-03-30T09:04:01.313Z,6.53
2019-03-30T09:06:41.826Z,8.63
2019-03-30T09:09:21.648Z,8.53
2019-03-30T09:12:01.564Z,8.63
2019-03-30T09:14:41.750Z,8.40
2019-03-30T09:17:21.813Z,7.97
2019-03-30T09:20:01.854Z,9.77
2019-03-30T09:22:41.991Z,10.57
2019-03-30T09:25:22.607Z,9.00
2019-03-30T09:28:02.251Z,9.83
2019-03-30T09:30:42.546Z,9.60
2019-03-30T09:33:22.502Z,8.90
2019-03-30T09:36:02.673Z,7.78
2019-03-30T09:38:42.817Z,8.53
2019-03-30T09:41:23.088Z,7.85
2019-03-30T09:43:51.251Z,8.00
2019-03-30T09:46:38.561Z,10.15
2019-03-30T09:49:18.582Z,9.13
2019-03-30T09:51:46.746Z,7.87
2019-03-30T09:54:33.721Z,7.90
2019-03-30T09:57:21.045Z,8.70
2019-03-30T10:00:00.762Z,9.20
2019-03-30T10:02:40.870Z,8.38
2019-03-30T10:05:21.142Z,8.03
2019-03-30T10:08:01.477Z,10.50
2019-03-30T10:10:41.596Z,8.60
2019-03-30T10:13:21.994Z,8.90
2019-03-30T10:15:50.192Z,12.07
2019-03-30T10:18:37.521Z,9.73
2019-03-30T10:21:24.812Z,9.10
2019-03-30T10:24:05.321Z,10.10
2019-03-30T10:26:45.873Z,10.45
2019-03-30T10:29:25.590Z,11.45
2019-03-30T10:32:05.472Z,12.28
2019-03-30T10:34:45.597Z,10.45
2019-03-30T10:37:25.752Z,11.55
2019-03-30T10:40:05.952Z,11.15
2019-03-30T10:42:45.965Z,11.40
2019-03-30T10:45:25.982Z,10.85
2019-03-30T10:48:06.229Z,9.68
2019-03-30T10:50:49.954Z,11.12
2019-03-30T10:53:29.189Z,11.35
2019-03-30T10:55:57.434Z,12.03
2019-03-30T10:58:44.757Z,10.65
2019-03-30T11:01:25.426Z,11.75
2019-03-30T11:04:05.414Z,13.53
2019-03-30T11:06:45.685Z,12.10
2019-03-30T11:09:25.974Z,12.93
2019-03-30T11:12:05.931Z,13.38
2019-03-30T11:14:45.941Z,14.03
2019-03-30T11:17:25.921Z,13.93
2019-03-30T11:20:06.344Z,15.50
2019-03-30T11:22:46.731Z,14.90
2019-03-30T11:25:26.589Z,16.15
2019-03-30T11:28:07.057Z,16.93
2019-03-30T11:30:46.582Z,18.10
2019-03-30T11:33:26.710Z,16.52
2019-03-30T11:36:07.078Z,16.82
2019-03-30T11:38:48.602Z,20.37
2019-03-30T11:41:16.872Z,18.85
2019-03-30T11:44:04.329Z,20.90
2019-03-30T11:46:51.645Z,21.15
2019-03-30T11:49:19.899Z,19.00
2019-03-30T11:51:48.104Z,21.10
2019-03-30T11:57:29.157Z,20.45
2019-03-30T12:00:16.490Z,21.55
2019-03-30T12:02:56.305Z,21.97
2019-03-30T12:05:36.423Z,18.73
2019-03-30T12:08:16.769Z,19.87
2019-03-30T12:10:56.981Z,20.43
2019-03-30T12:13:36.915Z,19.23
2019-03-30T12:16:17.359Z,21.25
2019-03-30T12:18:57.350Z,18.48
2019-03-30T12:21:37.233Z,20.90
2019-03-30T12:24:17.358Z,19.62
2019-03-30T12:26:45.692Z,19.70
2019-03-30T12:29:33.336Z,21.60
2019-03-30T12:32:20.696Z,20.25
2019-03-30T12:35:00.882Z,19.02
2019-03-30T12:37:41.050Z,20.12
2019-03-30T12:40:21.320Z,19.87
2019-03-30T12:43:01.468Z,18.52
2019-03-30T12:48:42.753Z,21.68
2019-03-30T12:51:23.606Z,20.97
2019-03-30T12:54:03.953Z,19.17
2019-03-30T12:56:44.066Z,21.60
2019-03-30T12:59:24.194Z,19.42
2019-03-30T13:02:04.217Z,19.20
2019-03-30T13:04:44.371Z,19.25
2019-03-30T13:07:24.617Z,18.98
2019-03-30T13:10:04.640Z,21.20
2019-03-30T13:12:45.198Z,20.70
2019-03-30T13:15:24.919Z,20.90
2019-03-30T13:18:04.978Z,22.15
2019-03-30T13:20:45.525Z,20.92
2019-03-30T13:23:27.678Z,21.57
2019-03-30T13:26:08.206Z,21.10
2019-03-30T13:28:48.406Z,21.48
2019-03-30T13:31:28.850Z,19.52
2019-03-30T13:34:09.866Z,19.62
2019-03-30T13:36:49.886Z,20.95
2019-03-30T13:39:29.865Z,20.95
2019-03-30T13:42:10.271Z,20.45
2019-03-30T13:47:32.500Z,20.30
2019-03-30T13:50:13.796Z,18.70
2019-03-30T13:52:53.642Z,19.73
2019-03-30T13:55:33.751Z,20.27
2019-03-30T13:58:14.174Z,21.23
2019-03-30T14:00:53.741Z,18.70
2019-03-30T14:03:33.861Z,20.25
2019-03-30T14:06:13.941Z,19.60
2019-03-30T14:08:54.010Z,18.77
2019-03-30T14:11:34.031Z,18.85
2019-03-30T14:14:14.271Z,18.37
2019-03-30T14:16:56.781Z,18.25
2019-03-30T14:19:36.500Z,17.40
2019-03-30T14:22:16.687Z,18.07
2019-03-30T14:24:56.617Z,18.92
2019-03-30T14:27:38.535Z,19.82
2019-03-30T14:30:19.283Z,18.70
2019-03-30T14:32:47.521Z,17.65
2019-03-30T14:35:34.828Z,17.30
2019-03-30T14:41:16.487Z,17.37
2019-03-30T14:44:03.774Z,16.10
2019-03-30T14:46:52.546Z,16.48
2019-03-30T14:49:33.029Z,15.32
2019-03-30T14:52:14.425Z,16.27
2019-03-30T14:54:54.519Z,17.45
2019-03-30T14:57:37.679Z,17.23
2019-03-30T15:00:18.688Z,16.73
2019-03-30T15:02:58.405Z,17.52
2019-03-30T15:05:38.547Z,16.30
2019-03-30T15:08:18.614Z,16.10
2019-03-30T15:13:41.873Z,15.50
2019-03-30T15:16:29.308Z,16.48
2019-03-30T15:19:17.585Z,15.90
2019-03-30T15:21:57.731Z,15.23
2019-03-30T15:24:37.647Z,15.78
2019-03-30T15:27:17.580Z,15.63
2019-03-30T15:29:58.704Z,14.10
2019-03-30T15:32:38.882Z,14.98
2019-03-30T15:35:19.013Z,14.13
2019-03-30T15:37:59.196Z,14.83
2019-03-30T15:40:39.245Z,12.90
2019-03-30T15:43:19.387Z,14.40
2019-03-30T15:45:47.668Z,13.93
2019-03-30T15:48:34.966Z,13.80
2019-03-30T15:51:15.061Z,13.68
2019-03-30T15:53:55.929Z,14.40
2019-03-30T15:56:36.290Z,16.00
2019-03-30T15:59:16.449Z,13.50
2019-03-30T16:01:58.403Z,15.23
2019-03-30T16:04:38.659Z,14.17
2019-03-30T16:07:18.592Z,13.97
2019-03-30T16:09:58.738Z,13.90
2019-03-30T16:12:38.921Z,12.63
2019-03-30T16:15:20.301Z,13.77
2019-03-30T16:18:00.595Z,12.80
2019-03-30T16:20:42.524Z,14.50
2019-03-30T16:23:23.122Z,12.90
2019-03-30T16:26:03.169Z,12.43
2019-03-30T16:28:43.419Z,13.97
2019-03-30T16:31:23.438Z,12.33
2019-03-30T16:34:03.635Z,14.43
2019-03-30T16:36:43.734Z,14.50
2019-03-30T16:39:24.142Z,11.90
2019-03-30T16:45:16.526Z,13.50
2019-03-30T16:47:56.533Z,14.17
2019-03-30T16:50:36.689Z,13.33
2019-03-30T16:53:17.234Z,13.97
2019-03-30T16:55:56.951Z,13.37
2019-03-30T16:58:36.963Z,13.30
2019-03-30T17:01:17.141Z,14.10
2019-03-30T17:03:57.527Z,14.80
2019-03-30T17:06:37.485Z,15.43
2019-03-30T17:09:17.650Z,14.27
2019-03-30T17:11:58.122Z,17.30
2019-03-30T17:14:38.421Z,17.40
2019-03-30T17:17:18.067Z,17.37
2019-03-30T17:19:59.906Z,14.97
2019-03-30T17:22:40.802Z,18.33
2019-03-30T17:25:20.609Z,16.10
2019-03-30T17:28:01.009Z,17.13
2019-03-30T17:30:42.282Z,16.93
2019-03-30T17:33:22.359Z,18.53
2019-03-30T17:36:04.327Z,20.77
2019-03-30T17:38:46.340Z,21.33
2019-03-30T17:41:26.787Z,18.50
2019-03-30T17:44:06.567Z,19.50
2019-03-30T17:46:46.311Z,20.90
2019-03-30T17:49:26.360Z,19.77
2019-03-30T17:52:06.361Z,17.50
2019-03-30T17:54:46.477Z,18.07
2019-03-30T17:57:27.688Z,22.13
2019-03-30T18:00:08.183Z,21.17
2019-03-30T18:02:50.103Z,22.67
2019-03-30T18:08:12.575Z,21.53
2019-03-30T18:10:52.898Z,18.80
2019-03-30T18:13:36.855Z,20.70
2019-03-30T18:16:17.045Z,18.27
2019-03-30T18:21:56.686Z,18.57
2019-03-30T18:24:36.345Z,18.50
2019-03-30T18:27:16.774Z,19.97
2019-03-30T18:29:56.794Z,19.90
2019-03-30T18:32:36.777Z,16.60
2019-03-30T18:35:17.046Z,16.70
2019-03-30T18:37:57.060Z,16.17
2019-03-30T18:40:37.213Z,16.33
2019-03-30T18:43:17.509Z,16.67
2019-03-30T18:45:57.403Z,18.57
2019-03-30T18:48:37.118Z,15.67
2019-03-30T18:51:17.118Z,15.53
2019-03-30T18:53:57.299Z,16.03
2019-03-30T18:56:37.435Z,13.93
2019-03-30T18:59:17.309Z,12.67
2019-03-30T19:01:57.413Z,15.73
2019-03-30T19:04:37.498Z,15.17
2019-03-30T19:07:17.769Z,14.50
2019-03-30T19:09:57.499Z,15.43
2019-03-30T19:15:35.745Z,15.70
2019-03-30T19:18:14.220Z,15.67
2019-03-30T19:21:01.569Z,13.43
2019-03-30T19:23:41.621Z,15.90
2019-03-30T19:26:21.610Z,14.73
2019-03-30T19:29:01.740Z,12.73
2019-03-30T19:31:41.929Z,15.47
2019-03-30T19:34:22.889Z,15.80
2019-03-30T19:37:03.434Z,15.33
2019-03-30T19:39:43.610Z,16.30
2019-03-30T19:42:24.230Z,16.13
2019-03-30T19:45:03.849Z,17.00
2019-03-30T19:47:44.065Z,16.43
2019-03-30T19:50:24.173Z,13.37
2019-03-30T19:53:04.605Z,16.13
2019-03-30T19:55:44.570Z,17.03
2019-03-30T19:58:24.694Z,16.70
2019-03-30T20:01:04.694Z,17.07
2019-03-30T20:03:44.857Z,16.50
2019-03-30T20:06:24.622Z,19.07
2019-03-30T20:09:04.679Z,18.50
2019-03-30T20:11:44.843Z,20.00
2019-03-30T20:14:24.916Z,18.70
2019-03-30T20:17:05.097Z,17.53
2019-03-30T20:19:45.209Z,18.33
2019-03-30T20:22:27.865Z,18.73
2019-03-30T20:25:07.551Z,18.27
2019-03-30T20:27:48.582Z,17.77
2019-03-30T20:30:28.979Z,16.80
2019-03-30T20:33:08.796Z,17.53
2019-03-30T20:35:49.026Z,18.60
2019-03-30T20:38:29.221Z,18.93
2019-03-30T20:41:09.159Z,17.47
2019-03-30T20:43:49.173Z,17.00
2019-03-30T20:46:29.240Z,16.60
2019-03-30T20:49:09.181Z,21.43
2019-03-30T20:51:48.998Z,17.33
2019-03-30T20:54:29.145Z,23.50
2019-03-30T20:57:09.239Z,21.97
2019-03-30T20:59:49.335Z,19.23
2019-03-30T21:02:29.249Z,18.57
2019-03-30T21:05:09.370Z,16.20
2019-03-30T21:07:49.576Z,14.87
2019-03-30T21:10:30.003Z,16.93
2019-03-30T21:13:09.822Z,15.67
2019-03-30T21:15:49.897Z,15.20
2019-03-30T21:18:29.845Z,14.13
2019-03-30T21:21:09.890Z,15.83
2019-03-30T21:23:49.918Z,16.00
2019-03-30T21:26:30.449Z,14.87
2019-03-30T21:29:10.126Z,16.40
2019-03-30T21:31:50.122Z,15.17
2019-03-30T21:34:30.189Z,15.17
2019-03-30T21:37:10.578Z,14.63
2019-03-30T21:39:50.494Z,14.07
2019-03-30T21:42:30.811Z,16.67
2019-03-30T21:45:10.873Z,12.77
2019-03-30T21:47:50.989Z,13.77
2019-03-30T21:50:31.078Z,14.83
2019-03-30T21:53:11.278Z,13.17
2019-03-30T21:55:51.575Z,16.17
2019-03-30T21:58:31.669Z,14.53
2019-03-30T22:01:12.433Z,16.33
2019-03-30T22:03:53.464Z,15.47
2019-03-30T22:09:32.797Z,15.23
2019-03-30T22:12:12.574Z,14.83
2019-03-30T22:14:52.641Z,15.57
2019-03-30T22:17:32.735Z,13.43
2019-03-30T22:20:12.917Z,16.20
2019-03-30T22:22:53.078Z,17.10
2019-03-30T22:25:33.213Z,13.97
2019-03-30T22:28:21.661Z,13.53
2019-03-30T22:31:09.220Z,14.77
2019-03-30T22:33:48.926Z,13.63
2019-03-30T22:36:29.064Z,16.50
2019-03-30T22:39:09.436Z,15.17
2019-03-30T22:41:51.845Z,13.43
2019-03-30T22:44:31.720Z,15.47
2019-03-30T22:47:12.097Z,16.93
2019-03-30T22:49:52.728Z,13.20
2019-03-30T22:52:21.003Z,13.40
2019-03-30T22:55:08.397Z,15.40
2019-03-30T22:57:48.899Z,12.27
2019-03-30T23:00:48.522Z,13.90
2019-03-30T23:03:28.237Z,14.07
2019-03-30T23:06:07.959Z,14.80
2019-03-30T23:08:47.992Z,12.97
2019-03-30T23:11:16.340Z,14.20
2019-03-30T23:14:03.661Z,15.93
2019-03-30T23:16:50.974Z,14.40
2019-03-30T23:19:31.770Z,12.20
2019-03-30T23:22:11.510Z,15.50
2019-03-30T23:24:51.750Z,15.93
2019-03-30T23:27:31.725Z,12.83
2019-03-30T23:30:11.825Z,14.27
2019-03-30T23:32:51.965Z,15.30
2019-03-30T23:35:31.823Z,15.20
2019-03-30T23:38:00.443Z,13.63
2019-03-30T23:40:48.142Z,16.03
2019-03-30T23:43:35.467Z,13.53
2019-03-30T23:46:15.734Z,15.17
2019-03-30T23:48:55.834Z,15.40
2019-03-30T23:51:35.831Z,15.80
2019-03-30T23:54:15.873Z,14.17
2019-03-30T23:59:57.170Z,14.70
